Time;durP1;ratioP1;P1;durP2;ratioP2;P2;SDS_P1;SDS_P2;PMS_P1;PMS_P2;Temp;Humidity;BMP_temperature;BMP_pressure;BME280_temperature;BME280_humidity;BME280_pressure;Samples;Min_cycle;Max_cycle;Signal;HPM_P1;HPM_P2
2023/04/24 00:01:40;;;;;;;2.63;1.30;;;;;;;10.28;91.20;99833.19;4981770;28;20034;-74
2023/04/24 00:04:06;;;;;;;2.25;1.30;;;;;;;10.20;91.40;99832.47;4986164;28;20038;-74
2023/04/24 00:06:33;;;;;;;1.35;1.00;;;;;;;10.19;92.39;99828.25;4985158;28;20396;-73
2023/04/24 00:09:00;;;;;;;2.75;1.20;;;;;;;10.29;91.77;99836.59;5003357;28;20046;-74
2023/04/24 00:11:26;;;;;;;4.93;1.92;;;;;;;10.19;92.12;99842.03;4999545;28;20026;-74
2023/04/24 00:13:52;;;;;;;4.22;1.50;;;;;;;10.11;92.08;99845.50;4983558;28;20042;-73
2023/04/24 00:16:18;;;;;;;2.58;1.40;;;;;;;10.14;91.93;99846.94;4979997;28;20026;-74
2023/04/24 00:18:44;;;;;;;5.43;1.88;;;;;;;10.16;91.28;99837.19;4980800;28;20535;-74
2023/04/24 00:21:10;;;;;;;4.03;1.90;;;;;;;10.04;90.47;99838.59;4970347;28;20135;-74
2023/04/24 00:23:36;;;;;;;2.95;2.00;;;;;;;10.01;89.73;99844.13;4985997;28;20042;-75
2023/04/24 00:26:01;;;;;;;7.53;3.92;;;;;;;9.84;88.68;99841.66;4983644;28;20046;-73
2023/04/24 00:28:27;;;;;;;9.25;4.10;;;;;;;9.72;88.59;99840.50;4978960;28;20038;-73
2023/04/24 00:30:53;;;;;;;8.93;3.95;;;;;;;9.65;88.87;99849.91;4967726;28;20077;-73
2023/04/24 00:33:19;;;;;;;6.68;3.38;;;;;;;9.57;89.35;99845.59;4965480;28;20057;-77
2023/04/24 00:35:44;;;;;;;7.32;3.80;;;;;;;9.57;88.84;99855.13;4986037;28;20073;-73
2023/04/24 00:38:10;;;;;;;6.43;3.88;;;;;;;9.53;89.32;99842.56;4975605;28;20092;-75
2023/04/24 00:40:35;;;;;;;9.98;4.82;;;;;;;9.48;89.35;99855.19;4981976;28;20495;-74
2023/04/24 00:43:01;;;;;;;7.78;4.25;;;;;;;9.37;89.58;99845.25;4983955;28;20057;-73
2023/04/24 00:45:26;;;;;;;10.77;4.53;;;;;;;9.40;89.91;99852.66;4966238;28;20030;-73
2023/04/24 00:47:53;;;;;;;8.50;4.50;;;;;;;9.29;90.03;99851.28;4967069;28;20647;-73
2023/04/24 00:50:19;;;;;;;10.52;4.57;;;;;;;9.35;89.52;99853.16;4976131;28;20116;-74
2023/04/24 00:52:45;;;;;;;10.52;4.75;;;;;;;9.38;89.69;99862.38;4964176;28;20712;-74
2023/04/24 00:55:10;;;;;;;8.45;4.60;;;;;;;9.26;90.28;99854.19;4986369;28;20026;-73
2023/04/24 00:57:37;;;;;;;10.40;4.45;;;;;;;9.22;90.47;99858.09;4997037;28;20185;-73
2023/04/24 01:00:05;;;;;;;8.95;4.13;;;;;;;9.20;91.33;99857.47;4971084;28;20034;-73
2023/04/24 01:02:34;;;;;;;7.05;4.65;;;;;;;9.21;91.37;99853.91;4987769;28;20045;-74
2023/04/24 01:05:01;;;;;;;5.43;3.58;;;;;;;9.16;92.26;99857.00;4976221;28;20420;-73
2023/04/24 01:07:27;;;;;;;11.10;3.70;;;;;;;9.27;92.60;99850.63;4970609;28;20036;-74
2023/04/24 01:09:52;;;;;;;7.38;4.30;;;;;;;9.11;92.83;99845.53;4988880;28;20030;-73
2023/04/24 01:12:19;;;;;;;6.18;3.78;;;;;;;9.12;93.44;99849.75;5002628;28;20037;-74
2023/04/24 01:14:45;;;;;;;7.80;3.95;;;;;;;9.06;93.37;99848.66;4969072;28;20046;-73
2023/04/24 01:17:11;;;;;;;11.00;4.22;;;;;;;9.12;93.86;99842.00;5005299;28;20067;-73
2023/04/24 01:19:37;;;;;;;9.60;5.47;;;;;;;9.11;93.33;99845.53;4974044;28;20046;-73
2023/04/24 01:22:08;;;;;;;10.52;4.65;;;;;;;9.13;92.87;99846.97;4987225;28;20131;-73
2023/04/24 01:24:34;;;;;;;9.85;4.70;;;;;;;9.06;92.76;99840.06;4980040;28;20084;-74
2023/04/24 01:27:01;;;;;;;10.95;5.63;;;;;;;9.00;92.41;99841.53;4986876;28;20484;-73
2023/04/24 01:29:26;;;;;;;14.10;7.00;;;;;;;8.96;92.62;99841.06;4970210;28;20125;-73
2023/04/24 01:31:52;;;;;;;11.85;5.80;;;;;;;8.94;92.48;99845.59;4990625;28;20045;-73
2023/04/24 01:34:18;;;;;;;12.75;5.35;;;;;;;9.00;91.92;99844.13;5005703;28;20029;-73
2023/04/24 01:36:45;;;;;;;11.63;5.82;;;;;;;8.95;92.86;99841.25;5008918;28;20095;-74
2023/04/24 01:39:11;;;;;;;9.50;5.35;;;;;;;8.96;92.96;99840.28;4987417;28;20041;-73
2023/04/24 01:41:37;;;;;;;11.00;6.13;;;;;;;8.92;93.24;99828.66;4991581;28;20120;-74
2023/04/24 01:44:02;;;;;;;16.75;6.68;;;;;;;8.98;93.22;99838.31;4986148;28;20396;-73
2023/04/24 01:46:28;;;;;;;14.15;6.72;;;;;;;8.96;93.57;99838.50;5005460;28;20507;-73
2023/04/24 01:48:54;;;;;;;15.50;7.15;;;;;;;8.96;93.22;99848.03;4991877;28;20034;-73
2023/04/24 01:51:20;;;;;;;14.65;6.60;;;;;;;8.92;93.23;99841.59;4988894;28;20035;-74
2023/04/24 01:53:45;;;;;;;14.57;7.60;;;;;;;9.00;92.64;99841.53;4973849;28;20115;-73
2023/04/24 01:56:11;;;;;;;17.77;8.23;;;;;;;8.86;93.32;99839.69;5008260;28;20045;-73
2023/04/24 01:58:37;;;;;;;15.40;7.90;;;;;;;8.86;93.24;99837.91;4988519;28;20069;-73
2023/04/24 02:01:02;;;;;;;20.00;8.75;;;;;;;8.87;93.71;99838.69;4988103;28;20037;-73
2023/04/24 02:03:28;;;;;;;16.92;7.95;;;;;;;8.87;93.06;99836.94;5005339;28;20373;-73
2023/04/24 02:05:55;;;;;;;18.95;8.55;;;;;;;8.91;93.57;99834.78;4974728;28;20396;-73
2023/04/24 02:08:20;;;;;;;16.45;7.95;;;;;;;8.86;93.23;99845.66;4986511;28;20092;-72
2023/04/24 02:10:48;;;;;;;19.45;8.80;;;;;;;8.84;93.43;99839.06;5008820;28;20033;-73
2023/04/24 02:13:14;;;;;;;19.38;8.93;;;;;;;8.86;93.96;99837.09;4972404;28;20403;-73
2023/04/24 02:15:39;;;;;;;15.20;8.45;;;;;;;8.92;93.53;99844.19;5005047;28;20034;-73
2023/04/24 02:18:06;;;;;;;18.88;9.95;;;;;;;8.91;94.17;99847.72;4974413;28;20492;-73
2023/04/24 02:20:33;;;;;;;21.98;9.13;;;;;;;8.83;94.07;99843.41;4973710;28;20053;-73
2023/04/24 02:22:59;;;;;;;18.33;8.93;;;;;;;8.87;93.83;99841.28;5003117;28;20042;-72
2023/04/24 02:25:25;;;;;;;22.33;10.07;;;;;;;8.79;93.92;99838.75;4990885;28;20040;-73
2023/04/24 02:27:52;;;;;;;24.77;10.88;;;;;;;8.83;94.28;99840.81;4969321;28;20025;-73
2023/04/24 02:30:18;;;;;;;23.23;10.57;;;;;;;8.77;94.65;99831.94;4987617;28;20041;-74
2023/04/24 02:32:44;;;;;;;19.33;9.88;;;;;;;8.84;94.86;99844.22;5003304;28;20026;-74
2023/04/24 02:35:10;;;;;;;22.85;9.70;;;;;;;8.82;94.29;99841.00;4988099;28;20068;-73
2023/04/24 02:37:35;;;;;;;22.08;10.95;;;;;;;8.81;94.76;99839.38;4992991;28;20034;-73
2023/04/24 02:40:01;;;;;;;20.67;10.13;;;;;;;8.93;93.93;99840.63;4989869;28;20058;-73
2023/04/24 02:42:26;;;;;;;23.73;10.63;;;;;;;8.74;94.92;99839.25;4982419;28;20041;-73
2023/04/24 02:44:52;;;;;;;24.40;11.23;;;;;;;8.86;94.88;99830.13;5002391;28;20034;-73
2023/04/24 02:47:17;;;;;;;20.48;10.95;;;;;;;8.81;95.20;99845.34;4975696;28;20029;-73
2023/04/24 02:49:43;;;;;;;21.02;11.07;;;;;;;8.88;94.58;99837.75;4970221;28;20042;-73
2023/04/24 02:52:08;;;;;;;23.40;9.93;;;;;;;8.86;94.54;99837.91;5006802;28;20045;-73
2023/04/24 02:54:34;;;;;;;24.65;10.85;;;;;;;8.83;94.60;99832.25;4988642;28;20441;-73
2023/04/24 02:57:00;;;;;;;22.73;10.20;;;;;;;8.79;94.78;99838.75;4979572;28;20027;-72
2023/04/24 02:59:28;;;;;;;20.27;10.93;;;;;;;8.85;94.40;99845.81;4971386;28;20121;-74
2023/04/24 03:01:54;;;;;;;19.65;9.73;;;;;;;8.85;94.67;99850.97;4972782;28;20064;-73
2023/04/24 03:04:20;;;;;;;20.95;10.45;;;;;;;8.76;94.47;99855.41;4972967;28;20563;-73
2023/04/24 03:06:45;;;;;;;21.38;10.75;;;;;;;8.84;94.48;99850.19;4984424;28;20042;-73
2023/04/24 03:09:12;;;;;;;19.63;10.40;;;;;;;8.84;94.54;99849.41;4972848;28;20050;-73
2023/04/24 03:11:37;;;;;;;23.83;10.15;;;;;;;8.91;94.66;99855.47;4985991;28;20034;-74
2023/04/24 03:14:03;;;;;;;23.33;9.88;;;;;;;8.85;94.51;99843.22;4983810;28;20037;-75
2023/04/24 03:16:28;;;;;;;22.33;10.60;;;;;;;8.84;93.98;99851.97;4987057;28;20033;-73
2023/04/24 03:18:54;;;;;;;24.20;10.48;;;;;;;8.81;94.82;99862.63;4969867;28;20818;-73
2023/04/24 03:21:20;;;;;;;21.25;10.20;;;;;;;8.89;94.02;99862.59;4970177;28;20030;-73
2023/04/24 03:23:46;;;;;;;22.90;10.55;;;;;;;8.91;93.38;99855.47;4985472;28;20034;-73
2023/04/24 03:26:12;;;;;;;16.05;9.38;;;;;;;8.94;93.66;99865.50;4976458;28;20056;-73
2023/04/24 03:28:45;;;;;;;22.67;10.20;;;;;;;8.93;94.01;99858.72;4976601;28;20037;-73
2023/04/24 03:31:10;;;;;;;20.70;9.55;;;;;;;8.87;93.88;99856.78;4971005;28;20041;-73
2023/04/24 03:33:37;;;;;;;19.13;9.13;;;;;;;8.92;94.05;99862.28;4980140;28;20611;-73
2023/04/24 03:36:02;;;;;;;19.23;9.52;;;;;;;8.83;94.40;99866.66;4999939;28;20037;-73
2023/04/24 03:38:36;;;;;;;21.42;9.32;;;;;;;8.85;94.61;99862.13;5003743;28;20053;-73
2023/04/24 03:41:23;;;;;;;21.65;9.48;;;;;;;8.85;94.32;99872.47;4985360;28;20102;-73
2023/04/24 03:43:53;;;;;;;18.70;9.98;;;;;;;8.82;94.38;99870.22;4985285;28;20044;-73
2023/04/24 03:46:19;;;;;;;20.85;9.88;;;;;;;8.93;94.13;99869.88;4987558;28;20038;-72
2023/04/24 03:48:51;;;;;;;17.73;10.98;;;;;;;8.86;93.69;99860.38;4983124;28;20038;-72
2023/04/24 03:51:20;;;;;;;22.33;9.00;;;;;;;8.86;93.97;99871.50;4982496;28;20064;-73
2023/04/24 03:53:49;;;;;;;19.95;9.45;;;;;;;8.95;93.49;99859.38;4996798;28;20065;-73
2023/04/24 03:56:17;;;;;;;16.10;9.13;;;;;;;8.88;93.26;99861.81;4982810;28;20527;-73
2023/04/24 03:58:43;;;;;;;17.13;9.77;;;;;;;8.91;92.97;99864.06;4972152;28;20042;-73
2023/04/24 04:01:11;;;;;;;19.70;9.73;;;;;;;8.85;92.89;99862.13;4991303;28;20033;-72
2023/04/24 04:03:55;;;;;;;23.42;9.77;;;;;;;8.85;93.20;99861.31;4984005;28;20044;-74
2023/04/24 04:06:23;;;;;;;22.35;10.50;;;;;;;8.90;93.20;99866.81;5000791;28;20033;-73
2023/04/24 04:08:50;;;;;;;18.88;9.15;;;;;;;8.88;92.90;99871.34;4986164;28;20041;-73
2023/04/24 04:11:16;;;;;;;17.30;9.55;;;;;;;8.85;92.91;99869.09;4970805;28;20034;-73
2023/04/24 04:13:41;;;;;;;20.67;8.60;;;;;;;8.80;92.58;99872.19;4988896;28;20042;-73
2023/04/24 04:16:08;;;;;;;19.35;7.97;;;;;;;8.84;92.63;99877.81;4974449;28;20076;-73
2023/04/24 04:18:34;;;;;;;15.88;8.68;;;;;;;8.76;92.12;99873.50;4969372;28;20066;-73
2023/04/24 04:21:01;;;;;;;17.02;7.80;;;;;;;8.80;92.14;99876.53;4993541;28;20029;-73
2023/04/24 04:23:27;;;;;;;17.40;8.57;;;;;;;8.74;92.53;99885.78;4988873;28;20060;-74
2023/04/24 04:26:15;;;;;;;17.75;8.52;;;;;;;8.81;91.96;99883.31;4989923;28;20029;-73
2023/04/24 04:29:00;;;;;;;16.63;7.80;;;;;;;8.83;92.52;99874.41;4986544;28;20566;-74
2023/04/24 04:31:27;;;;;;;18.25;8.23;;;;;;;8.76;92.19;99886.41;4968281;28;20113;-73
2023/04/24 04:33:53;;;;;;;15.18;7.32;;;;;;;8.73;93.06;99886.75;4985676;28;20112;-73
2023/04/24 04:36:19;;;;;;;18.83;8.30;;;;;;;8.71;94.15;99888.69;4987831;28;20022;-74
2023/04/24 04:38:50;;;;;;;15.73;8.00;;;;;;;8.57;96.90;99903.09;4987590;28;20042;-74
2023/04/24 04:41:31;;;;;;;16.85;9.43;;;;;;;8.54;98.55;99887.91;4971370;28;20030;-73
2023/04/24 04:43:58;;;;;;;19.67;9.80;;;;;;;8.36;100.00;99895.81;4987175;28;20038;-73
2023/04/24 04:46:25;;;;;;;17.48;9.20;;;;;;;8.31;100.00;99903.25;4986742;28;20442;-73
2023/04/24 04:49:28;;;;;;;17.02;9.20;;;;;;;8.37;100.00;99908.56;4989049;28;20495;-73
2023/04/24 04:51:53;;;;;;;17.75;9.13;;;;;;;8.32;100.00;99904.88;4985434;28;20029;-73
2023/04/24 04:54:19;;;;;;;16.42;9.18;;;;;;;8.30;100.00;99904.22;4974289;28;20119;-73
2023/04/24 04:56:45;;;;;;;17.23;8.77;;;;;;;8.27;100.00;99912.28;4988696;28;20288;-73
2023/04/24 04:59:12;;;;;;;15.25;8.45;;;;;;;8.31;100.00;99911.81;4989802;28;20111;-73
2023/04/24 05:01:38;;;;;;;16.92;8.73;;;;;;;8.29;100.00;99910.38;4970548;28;20037;-73
2023/04/24 05:04:06;;;;;;;21.88;9.50;;;;;;;8.25;100.00;99917.63;4985657;28;20387;-73
2023/04/24 05:06:31;;;;;;;14.82;8.00;;;;;;;8.33;100.00;99909.88;4987813;28;20033;-72
2023/04/24 05:08:57;;;;;;;15.57;8.70;;;;;;;8.28;100.00;99909.53;4990701;23;20105;-72
2023/04/24 05:11:38;;;;;;;13.35;8.63;;;;;;;8.21;100.00;99898.25;4964428;28;20034;-73
2023/04/24 05:14:04;;;;;;;16.05;8.98;;;;;;;8.27;100.00;99905.38;4980557;28;20515;-72
2023/04/24 05:16:39;;;;;;;21.75;8.95;;;;;;;8.19;100.00;99900.19;4962536;28;20038;-72
2023/04/24 05:19:06;;;;;;;18.63;8.38;;;;;;;8.15;100.00;99901.47;4972443;28;20087;-72
2023/04/24 05:21:39;;;;;;;13.48;9.02;;;;;;;8.16;100.00;99906.50;4973591;28;20436;-73
2023/04/24 05:24:04;;;;;;;14.75;8.07;;;;;;;8.19;100.00;99901.00;4960845;28;20089;-72
2023/04/24 05:26:43;;;;;;;21.95;9.23;;;;;;;8.16;100.00;99897.94;4964803;28;20038;-72
2023/04/24 05:29:09;;;;;;;18.05;8.52;;;;;;;8.22;100.00;99904.25;4959091;28;20059;-72
2023/04/24 05:31:35;;;;;;;16.48;8.85;;;;;;;8.24;100.00;99902.28;4947821;28;20037;-72
2023/04/24 05:34:00;;;;;;;12.70;8.07;;;;;;;8.24;100.00;99915.22;4969353;28;20085;-73
2023/04/24 05:36:27;;;;;;;13.35;8.18;;;;;;;8.25;100.00;99912.47;4964620;28;20504;-72
2023/04/24 05:38:52;;;;;;;16.50;7.70;;;;;;;8.24;100.00;99921.19;4967149;28;20047;-72
2023/04/24 05:41:18;;;;;;;14.60;7.50;;;;;;;8.29;100.00;99913.75;4947845;28;20395;-72
2023/04/24 05:43:43;;;;;;;19.67;7.78;;;;;;;8.24;100.00;99910.03;4963343;28;20094;-72
2023/04/24 05:46:09;;;;;;;13.30;7.55;;;;;;;8.31;100.00;99916.19;4966528;28;20642;-72
2023/04/24 05:48:35;;;;;;;14.07;7.20;;;;;;;8.18;100.00;99914.09;4957304;28;20458;-72
2023/04/24 05:51:03;;;;;;;16.70;7.60;;;;;;;8.29;100.00;99921.50;4939315;28;20067;-72
2023/04/24 05:53:28;;;;;;;14.18;7.53;;;;;;;8.26;100.00;99919.22;4944922;28;20039;-72
2023/04/24 05:55:54;;;;;;;14.13;7.70;;;;;;;8.25;100.00;99912.47;4941918;28;20506;-72
2023/04/24 05:58:20;;;;;;;14.57;7.13;;;;;;;8.25;100.00;99925.38;4941731;28;20090;-72
2023/04/24 06:00:46;;;;;;;12.68;7.18;;;;;;;8.27;100.00;99928.59;4931931;28;20394;-72
2023/04/24 06:03:12;;;;;;;10.02;6.18;;;;;;;8.33;100.00;99919.41;4946602;28;20036;-71
2023/04/24 06:05:38;;;;;;;13.05;6.72;;;;;;;8.27;100.00;99918.28;4953399;28;20034;-74
2023/04/24 06:08:04;;;;;;;14.90;6.20;;;;;;;8.30;100.00;99924.88;4945573;28;20122;-71
2023/04/24 06:10:35;;;;;;;13.73;6.00;;;;;;;8.16;100.00;99934.09;4947318;28;20035;-71
2023/04/24 06:13:01;;;;;;;11.60;6.57;;;;;;;8.04;100.00;99925.03;4938221;28;20051;-72
2023/04/24 06:15:30;;;;;;;9.45;6.13;;;;;;;8.01;100.00;99927.97;4950021;28;20047;-71
2023/04/24 06:17:59;;;;;;;12.40;6.82;;;;;;;8.04;100.00;99930.22;4934354;28;20054;-73
2023/04/24 06:20:26;;;;;;;10.70;6.10;;;;;;;7.94;100.00;99931.16;4964148;28;20118;-72
2023/04/24 06:22:52;;;;;;;11.52;5.85;;;;;;;7.86;100.00;99928.59;4948685;28;20564;-71
2023/04/24 06:25:18;;;;;;;9.93;5.43;;;;;;;7.93;100.00;99936.47;4953807;28;20031;-71
2023/04/24 06:27:44;;;;;;;15.10;6.72;;;;;;;7.92;100.00;99929.72;4947421;28;20129;-71
2023/04/24 06:30:10;;;;;;;8.55;5.78;;;;;;;7.96;100.00;99943.91;4943357;28;20043;-72
2023/04/24 06:32:35;;;;;;;13.18;6.13;;;;;;;7.96;100.00;99941.34;4932616;29;20043;-72
2023/04/24 06:35:01;;;;;;;11.75;6.35;;;;;;;8.06;100.00;99936.84;4961708;28;20054;-69
2023/04/24 06:37:27;;;;;;;9.27;5.65;;;;;;;8.10;100.00;99942.47;4947144;28;20035;-69
2023/04/24 06:39:52;;;;;;;10.18;6.13;;;;;;;8.10;100.00;99950.22;4957497;28;20039;-69
2023/04/24 06:42:20;;;;;;;8.25;5.03;;;;;;;8.12;100.00;99948.31;4948492;28;20023;-69
2023/04/24 06:44:46;;;;;;;9.40;4.93;;;;;;;7.99;100.00;99954.72;4945423;28;20031;-69
2023/04/24 06:47:13;;;;;;;7.22;3.90;;;;;;;7.99;100.00;99951.34;4947488;28;20043;-68
2023/04/24 06:49:39;;;;;;;9.30;3.80;;;;;;;8.05;100.00;99937.78;4942220;28;20039;-71
2023/04/24 06:52:06;;;;;;;8.65;3.25;;;;;;;8.03;100.00;99949.25;4946831;28;20039;-69
2023/04/24 06:54:32;;;;;;;5.68;3.20;;;;;;;8.04;100.00;99956.81;4950867;28;21328;-70
2023/04/24 06:57:02;;;;;;;5.80;3.30;;;;;;;8.03;100.00;99955.22;4947105;28;20035;-68
2023/04/24 06:59:28;;;;;;;7.70;3.45;;;;;;;7.96;100.00;99954.25;4945020;28;20042;-69
2023/04/24 07:01:53;;;;;;;8.88;3.30;;;;;;;7.90;100.00;99963.44;4941617;28;20039;-70
2023/04/24 07:04:19;;;;;;;4.10;2.95;;;;;;;7.94;100.00;99979.41;4947150;28;20047;-69
2023/04/24 07:06:49;;;;;;;8.00;2.75;;;;;;;7.77;100.00;99970.81;4947258;28;20020;-70
2023/04/24 07:09:16;;;;;;;2.50;1.80;;;;;;;7.60;100.00;99978.50;4943512;28;20063;-68
2023/04/24 07:11:41;;;;;;;1.02;0.77;;;;;;;7.56;100.00;99973.84;4948997;28;20529;-69
2023/04/24 07:14:07;;;;;;;1.98;0.77;;;;;;;7.44;100.00;99981.06;4946043;28;20043;-70
2023/04/24 07:16:33;;;;;;;2.15;0.85;;;;;;;7.36;100.00;99993.91;4940654;28;20043;-69
2023/04/24 07:18:58;;;;;;;2.28;0.85;;;;;;;7.20;100.00;99992.06;4953046;28;20039;-68
2023/04/24 07:21:25;;;;;;;2.15;0.73;;;;;;;7.20;100.00;99974.81;4946710;28;20036;-70
2023/04/24 07:23:50;;;;;;;1.85;0.70;;;;;;;7.15;100.00;99977.03;4945650;28;20039;-69
2023/04/24 07:26:16;;;;;;;0.80;0.50;;;;;;;7.23;100.00;99965.94;4947317;28;20051;-70
2023/04/24 07:28:41;;;;;;;0.98;0.52;;;;;;;7.18;100.00;99965.63;4946483;28;20058;-69
2023/04/24 07:31:08;;;;;;;1.10;0.70;;;;;;;7.09;100.00;99966.53;4945928;28;20054;-70
2023/04/24 07:33:33;;;;;;;1.75;0.82;;;;;;;7.18;100.00;99974.16;4941496;28;20194;-70
2023/04/24 07:36:00;;;;;;;0.82;0.60;;;;;;;7.06;100.00;99964.25;4947417;28;20051;-69
2023/04/24 07:38:25;;;;;;;1.58;0.80;;;;;;;7.17;100.00;99964.00;4942359;28;20122;-69
2023/04/24 07:40:51;;;;;;;0.95;0.70;;;;;;;7.19;100.00;99968.03;4957345;28;20031;-68
2023/04/24 07:43:17;;;;;;;1.55;1.00;;;;;;;7.00;100.00;99966.47;4927417;29;20046;-68
2023/04/24 07:45:42;;;;;;;4.47;0.90;;;;;;;7.00;100.00;99974.22;4944086;28;20039;-69
2023/04/24 07:48:08;;;;;;;2.17;1.00;;;;;;;7.05;100.00;99978.13;4928525;28;20035;-69
2023/04/24 07:50:35;;;;;;;1.98;1.02;;;;;;;7.14;100.00;99972.03;4947176;28;20448;-69
2023/04/24 07:53:01;;;;;;;2.50;1.27;;;;;;;7.09;100.00;99992.31;4946441;28;20058;-68
2023/04/24 07:55:26;;;;;;;4.15;1.55;;;;;;;7.14;100.00;99988.31;4946349;28;20493;-68
2023/04/24 07:57:52;;;;;;;3.28;1.83;;;;;;;7.24;100.00;99977.09;4942282;28;20035;-68
2023/04/24 08:00:18;;;;;;;3.63;2.30;;;;;;;7.23;100.00;99984.00;4942809;28;20043;-69
2023/04/24 08:02:43;;;;;;;3.20;2.15;;;;;;;7.20;100.00;99999.78;4946467;28;20027;-69
2023/04/24 08:05:08;;;;;;;6.65;2.83;;;;;;;7.26;100.00;100017.22;4961394;28;20038;-69
2023/04/24 08:07:35;;;;;;;4.85;3.00;;;;;;;7.31;100.00;100014.19;4945862;28;20112;-69
2023/04/24 08:10:01;;;;;;;7.93;3.97;;;;;;;7.34;100.00;100026.78;4944439;28;20038;-70
2023/04/24 08:12:28;;;;;;;10.85;4.50;;;;;;;7.28;100.00;100032.56;4944438;28;20661;-69
2023/04/24 08:14:54;;;;;;;10.77;3.97;;;;;;;7.27;100.00;100046.41;4936662;28;20422;-69
2023/04/24 08:17:19;;;;;;;8.00;4.07;;;;;;;7.31;100.00;100022.75;4946808;28;20058;-69
2023/04/24 08:19:48;;;;;;;7.68;4.32;;;;;;;7.41;100.00;100049.22;4944884;28;20043;-69
2023/04/24 08:22:14;;;;;;;8.65;4.63;;;;;;;7.52;100.00;100049.94;4942807;28;20050;-68
2023/04/24 08:24:40;;;;;;;8.98;5.35;;;;;;;7.39;100.00;100061.47;4942159;28;20101;-72
2023/04/24 08:27:05;;;;;;;9.52;5.43;;;;;;;7.37;100.00;100072.91;4942804;28;20039;-68
2023/04/24 08:29:31;;;;;;;10.77;5.30;;;;;;;7.34;100.00;100079.16;4942177;28;20074;-68
2023/04/24 08:31:57;;;;;;;7.72;5.35;;;;;;;7.40;100.00;100094.03;4944073;28;20031;-70
2023/04/24 08:34:23;;;;;;;11.27;5.25;;;;;;;7.42;100.00;100101.59;4940708;28;20035;-71
2023/04/24 08:36:48;;;;;;;10.73;5.10;;;;;;;7.36;100.00;100112.53;4943354;28;20035;-70
2023/04/24 08:39:15;;;;;;;12.88;4.93;;;;;;;7.41;100.00;100133.53;4924051;28;20197;-68
2023/04/24 08:41:45;;;;;;;9.15;4.55;;;;;;;7.47;100.00;100147.59;4956433;28;20047;-69
2023/04/24 08:44:12;;;;;;;9.38;4.30;;;;;;;7.33;100.00;100144.63;4941968;28;20043;-69
2023/04/24 08:46:39;;;;;;;9.23;5.32;;;;;;;7.44;100.00;100145.31;4927106;29;20061;-69
2023/04/24 08:49:05;;;;;;;12.57;5.13;;;;;;;7.51;100.00;100160.03;4942624;28;20039;-68
2023/04/24 08:51:31;;;;;;;9.48;4.95;;;;;;;7.51;100.00;100167.78;4939111;28;20707;-68
2023/04/24 08:53:57;;;;;;;10.98;5.90;;;;;;;7.52;100.00;100177.16;4943384;28;20509;-69
2023/04/24 08:56:24;;;;;;;10.52;6.13;;;;;;;7.55;100.00;100187.19;4928623;29;20324;-69
2023/04/24 08:58:53;;;;;;;13.23;5.72;;;;;;;7.53;100.00;100183.09;4943177;28;20051;-69
2023/04/24 09:01:19;;;;;;;8.80;5.30;;;;;;;7.52;100.00;100202.16;4941395;28;20086;-68
2023/04/24 09:03:48;;;;;;;9.82;6.28;;;;;;;7.54;100.00;100205.38;4944853;28;20039;-69
2023/04/24 09:06:14;;;;;;;10.15;5.50;;;;;;;7.60;100.00;100223.63;4935721;28;20031;-69
2023/04/24 09:08:41;;;;;;;10.82;6.30;;;;;;;7.48;100.00;100224.84;4943772;28;20492;-68
2023/04/24 09:11:08;;;;;;;11.68;5.32;;;;;;;7.48;100.00;100227.44;4940928;28;20114;-69
2023/04/24 09:13:34;;;;;;;13.48;5.78;;;;;;;7.49;100.00;100235.97;4958327;28;20043;-69
2023/04/24 09:16:00;;;;;;;11.05;5.55;;;;;;;7.58;100.00;100237.66;4943842;28;20122;-68
2023/04/24 09:18:27;;;;;;;14.50;5.72;;;;;;;7.61;100.00;100232.22;4942241;28;20040;-69
2023/04/24 09:21:01;;;;;;;11.40;6.00;;;;;;;7.55;100.00;100243.94;4960419;28;20496;-68
2023/04/24 09:23:31;;;;;;;10.15;5.07;;;;;;;7.63;100.00;100248.34;4942007;28;20043;-68
2023/04/24 09:25:57;;;;;;;13.55;6.20;;;;;;;7.67;100.00;100257.41;4945056;28;20031;-68
2023/04/24 09:28:32;;;;;;;15.27;6.82;;;;;;;7.63;100.00;100252.69;4939689;28;20043;-68
2023/04/24 09:31:13;;;;;;;15.02;6.75;;;;;;;7.70;100.00;100264.84;4942179;28;20032;-69
2023/04/24 09:33:39;;;;;;;21.23;7.93;;;;;;;7.62;100.00;100264.78;4959468;28;20055;-69
2023/04/24 09:36:06;;;;;;;18.75;8.45;;;;;;;7.56;100.00;100279.09;4942044;28;20050;-68
2023/04/24 09:38:32;;;;;;;23.08;7.45;;;;;;;7.72;100.00;100273.25;4955799;28;20066;-69
2023/04/24 09:41:06;;;;;;;22.20;8.52;;;;;;;7.82;100.00;100282.66;4944967;28;20034;-69
2023/04/24 09:43:32;;;;;;;19.80;8.48;;;;;;;7.80;100.00;100281.06;4922946;28;20114;-69
2023/04/24 09:45:59;;;;;;;20.13;7.63;;;;;;;7.91;100.00;100292.91;4927110;29;20051;-68
2023/04/24 09:48:32;;;;;;;23.30;7.82;;;;;;;8.09;100.00;100297.22;4955876;28;20126;-68
2023/04/24 09:50:58;;;;;;;20.25;7.97;;;;;;;8.07;100.00;100307.69;4929896;29;20042;-68
2023/04/24 09:53:25;;;;;;;22.27;7.82;;;;;;;7.99;100.00;100308.44;4946490;28;20043;-68
2023/04/24 09:55:52;;;;;;;16.55;7.55;;;;;;;8.03;100.00;100313.31;4951334;28;20046;-68
2023/04/24 09:58:24;;;;;;;15.60;7.15;;;;;;;8.16;100.00;100317.13;4946564;28;20134;-69
2023/04/24 10:00:52;;;;;;;20.73;7.93;;;;;;;8.16;100.00;100318.91;4948228;28;20031;-69
2023/04/24 10:03:18;;;;;;;21.83;7.68;;;;;;;8.23;100.00;100326.84;4942569;28;20110;-68
2023/04/24 10:05:46;;;;;;;23.85;7.18;;;;;;;8.29;100.00;100323.66;4949483;28;20483;-68
2023/04/24 10:08:13;;;;;;;17.20;6.70;;;;;;;8.44;100.00;100324.75;4945729;28;20074;-68
2023/04/24 10:10:44;;;;;;;22.63;7.65;;;;;;;8.55;100.00;100334.81;4946410;28;20422;-68
2023/04/24 10:13:11;;;;;;;15.57;6.38;;;;;;;8.35;100.00;100331.59;4945111;28;20043;-68
2023/04/24 10:15:37;;;;;;;26.67;6.82;;;;;;;8.30;100.00;100333.81;4948760;28;20545;-69
2023/04/24 10:18:06;;;;;;;20.25;6.80;;;;;;;8.33;100.00;100349.03;4945404;28;20042;-69
2023/04/24 10:20:32;;;;;;;16.38;6.88;;;;;;;8.37;100.00;100347.75;4945934;28;20315;-68
2023/04/24 10:22:58;;;;;;;23.90;7.00;;;;;;;8.30;100.00;100359.66;4960475;28;20474;-68
2023/04/24 10:25:30;;;;;;;14.15;5.18;;;;;;;8.14;100.00;100357.78;4947171;28;20046;-69
2023/04/24 10:28:02;;;;;;;16.98;5.47;;;;;;;8.28;100.00;100358.19;4960912;28;20035;-68
2023/04/24 10:30:29;;;;;;;15.85;4.20;;;;;;;8.19;100.00;100359.91;4944491;28;20039;-68
2023/04/24 10:32:55;;;;;;;11.93;4.15;;;;;;;8.26;100.00;100362.72;4958881;28;20066;-68
2023/04/24 10:35:24;;;;;;;20.67;4.75;;;;;;;8.61;100.00;100358.41;4948848;28;20063;-69
2023/04/24 10:37:55;;;;;;;14.70;5.65;;;;;;;8.90;100.00;100368.41;4946061;28;20035;-68
2023/04/24 10:40:32;;;;;;;9.10;3.97;;;;;;;8.98;100.00;100371.03;4946243;28;20035;-68
2023/04/24 10:42:58;;;;;;;15.93;4.55;;;;;;;9.04;100.00;100379.94;4961412;28;20035;-68
2023/04/24 10:45:24;;;;;;;21.58;4.60;;;;;;;9.14;100.00;100373.66;4946633;28;20042;-69
2023/04/24 10:47:56;;;;;;;14.35;4.57;;;;;;;9.10;100.00;100377.53;4960720;28;20086;-67
2023/04/24 10:50:21;;;;;;;17.15;4.38;;;;;;;8.95;100.00;100379.09;4945538;28;20764;-68
2023/04/24 10:52:50;;;;;;;15.00;4.50;;;;;;;9.02;100.00;100389.63;4943788;28;20039;-68
2023/04/24 10:55:16;;;;;;;21.55;3.97;;;;;;;9.00;100.00;100386.38;4929731;28;20425;-68
2023/04/24 10:58:04;;;;;;;18.95;4.53;;;;;;;9.02;100.00;100389.63;4945997;28;20039;-67
2023/04/24 11:00:30;;;;;;;20.58;4.18;;;;;;;8.97;100.00;100397.88;4957857;28;20040;-69
2023/04/24 11:02:57;;;;;;;23.63;4.07;;;;;;;8.83;100.00;100401.00;4943017;28;20039;-68
2023/04/24 11:05:55;;;;;;;17.00;4.88;;;;;;;9.01;100.00;100406.94;4947012;28;20480;-68
2023/04/24 11:08:28;;;;;;;8.00;3.17;;;;;;;9.15;100.00;100405.50;4942611;28;20090;-68
2023/04/24 11:11:09;;;;;;;13.90;4.18;;;;;;;9.07;100.00;100403.72;4986779;23;20148;-70
2023/04/24 11:13:53;;;;;;;12.65;3.40;;;;;;;9.18;100.00;100412.97;4990398;28;20047;-69
2023/04/24 11:16:29;;;;;;;10.75;3.42;;;;;;;9.32;100.00;100409.81;4982227;28;20069;-70
2023/04/24 11:19:17;;;;;;;12.95;3.47;;;;;;;9.57;99.76;100419.38;4962433;28;20046;-69
2023/04/24 11:22:01;;;;;;;12.02;4.13;;;;;;;9.69;100.00;100418.13;4979305;28;20452;-68
2023/04/24 11:24:38;;;;;;;14.30;3.63;;;;;;;9.79;99.23;100423.97;4982390;28;20100;-69
2023/04/24 11:27:13;;;;;;;13.68;3.35;;;;;;;9.75;97.16;100418.28;4959764;28;20253;-70
2023/04/24 11:29:39;;;;;;;15.45;3.78;;;;;;;9.74;97.33;100421.84;4978522;28;20042;-70